createdAt,value
2022-12-22T09:03:25.617Z,10.60
2022-12-22T09:04:25.439Z,10.68
2022-12-22T09:05:25.427Z,10.66
2022-12-22T09:06:29.704Z,10.74
2022-12-22T09:07:25.425Z,10.68
2022-12-22T09:08:25.372Z,10.71
2022-12-22T09:09:25.381Z,10.70
2022-12-22T09:10:26.584Z,10.71
2022-12-22T09:11:25.361Z,10.76
2022-12-22T09:12:25.345Z,10.80
2022-12-22T09:13:25.349Z,10.71
2022-12-22T09:14:25.400Z,10.78
2022-12-22T09:15:25.298Z,10.78
2022-12-22T09:16:25.342Z,10.83
2022-12-22T09:17:25.287Z,10.83
2022-12-22T09:18:25.298Z,10.78
2022-12-22T09:19:25.305Z,10.86
2022-12-22T09:20:25.285Z,10.78
2022-12-22T09:21:25.372Z,10.77
2022-12-22T09:22:27.932Z,10.70
2022-12-22T09:23:25.229Z,10.86
2022-12-22T09:24:25.208Z,10.83
2022-12-22T09:25:25.191Z,10.71
2022-12-22T09:26:25.183Z,10.88
2022-12-22T09:27:25.176Z,10.81
2022-12-22T09:28:25.162Z,10.83
2022-12-22T09:29:25.156Z,10.88
2022-12-22T09:30:25.138Z,10.80
2022-12-22T09:31:25.178Z,10.77
2022-12-22T09:32:25.124Z,10.78
2022-12-22T09:33:25.110Z,10.68
2022-12-22T09:34:25.080Z,10.81
2022-12-22T09:35:25.126Z,10.73
2022-12-22T09:36:25.073Z,10.68
2022-12-22T09:37:25.107Z,10.78
2022-12-22T09:38:25.035Z,10.76
2022-12-22T09:39:28.855Z,10.76
2022-12-22T09:40:25.035Z,10.78
2022-12-22T09:41:25.026Z,10.76
2022-12-22T09:42:25.018Z,10.77
2022-12-22T09:43:25.005Z,10.88
2022-12-22T09:44:24.973Z,10.74
2022-12-22T09:45:24.998Z,10.70
2022-12-22T09:46:25.021Z,10.76
2022-12-22T09:47:25.028Z,10.80
2022-12-22T09:48:24.932Z,10.80
2022-12-22T09:49:24.948Z,10.86
2022-12-22T09:50:25.943Z,10.74
2022-12-22T09:51:27.361Z,10.73
2022-12-22T09:52:24.874Z,10.80
2022-12-22T09:53:24.884Z,10.91
2022-12-22T09:54:24.860Z,10.81
2022-12-22T09:55:24.847Z,10.86
2022-12-22T09:56:24.847Z,10.83
2022-12-22T09:57:24.854Z,10.83
2022-12-22T09:58:26.636Z,10.94
2022-12-22T09:59:24.817Z,10.91
2022-12-22T10:00:25.797Z,10.94
2022-12-22T10:01:25.039Z,10.91
2022-12-22T10:02:25.841Z,10.89
2022-12-22T10:03:24.869Z,10.94
2022-12-22T10:04:24.759Z,10.94
2022-12-22T10:05:24.737Z,10.94
2022-12-22T10:06:24.732Z,10.96
2022-12-22T10:07:24.849Z,10.96
2022-12-22T10:08:24.712Z,11.10
2022-12-22T10:09:48.915Z,11.02
2022-12-22T10:10:25.689Z,11.02
2022-12-22T10:11:24.684Z,11.03
2022-12-22T10:12:24.682Z,11.11
2022-12-22T10:13:24.658Z,11.10
2022-12-22T10:14:24.653Z,11.06
2022-12-22T10:15:24.633Z,11.03
2022-12-22T10:16:24.679Z,10.99
2022-12-22T10:17:24.714Z,10.99
2022-12-22T10:18:24.599Z,10.96
2022-12-22T10:19:24.594Z,10.88
2022-12-22T10:20:24.582Z,10.99
2022-12-22T10:21:24.602Z,10.84
2022-12-22T10:22:24.567Z,10.94
2022-12-22T10:23:24.573Z,10.92
2022-12-22T10:24:24.530Z,10.88
2022-12-22T10:25:24.657Z,10.88
2022-12-22T10:26:29.655Z,10.95
2022-12-22T10:27:28.973Z,10.98
2022-12-22T10:28:25.506Z,10.95
2022-12-22T10:29:24.475Z,10.88
2022-12-22T10:30:24.466Z,10.83
2022-12-22T10:31:24.500Z,10.80
2022-12-22T10:32:24.560Z,10.76
2022-12-22T10:33:24.425Z,10.76
2022-12-22T10:34:24.412Z,10.78
2022-12-22T10:35:24.407Z,10.71
2022-12-22T10:36:24.387Z,10.77
2022-12-22T10:37:24.397Z,10.78
2022-12-22T10:38:24.366Z,10.73
2022-12-22T10:39:24.380Z,10.59
2022-12-22T10:40:24.354Z,10.71
2022-12-22T10:41:24.325Z,10.76
2022-12-22T10:42:24.334Z,10.74
2022-12-22T10:43:24.326Z,10.68
2022-12-22T10:44:24.346Z,10.74
2022-12-22T10:45:24.351Z,10.71
2022-12-22T10:46:24.343Z,10.81
2022-12-22T10:47:24.648Z,10.89
2022-12-22T10:48:24.258Z,10.94
2022-12-22T10:49:24.263Z,10.94
2022-12-22T10:50:24.227Z,10.95
2022-12-22T10:51:24.228Z,10.95
2022-12-22T10:52:30.184Z,10.84
2022-12-22T10:53:25.210Z,11.01
2022-12-22T10:54:24.191Z,10.94
2022-12-22T10:55:24.205Z,10.98
2022-12-22T10:56:24.175Z,10.91
2022-12-22T10:57:24.159Z,10.96
2022-12-22T10:58:24.144Z,10.99
2022-12-22T10:59:24.136Z,11.03
2022-12-22T11:00:24.163Z,10.99
2022-12-22T11:01:24.258Z,11.09
2022-12-22T11:02:24.384Z,11.06
2022-12-22T11:03:24.733Z,10.98
2022-12-22T11:04:24.082Z,11.11
2022-12-22T11:05:24.080Z,11.09
2022-12-22T11:06:24.078Z,11.16
2022-12-22T11:07:24.033Z,11.11
2022-12-22T11:08:24.040Z,11.11
2022-12-22T11:09:33.763Z,11.17
2022-12-22T11:10:25.025Z,11.11
2022-12-22T11:11:24.048Z,11.19
2022-12-22T11:12:24.007Z,11.29
2022-12-22T11:13:23.987Z,11.21
2022-12-22T11:14:23.981Z,11.28
2022-12-22T11:15:24.940Z,11.38
2022-12-22T11:16:24.111Z,11.34
2022-12-22T11:17:23.919Z,11.35
2022-12-22T11:18:24.925Z,11.39
2022-12-22T11:19:23.907Z,11.47
2022-12-22T11:20:23.890Z,11.38
2022-12-22T11:21:24.531Z,11.43
2022-12-22T11:22:23.894Z,11.52
2022-12-22T11:23:23.873Z,11.49
2022-12-22T11:24:23.860Z,11.50
2022-12-22T11:25:23.832Z,11.56
2022-12-22T11:26:23.843Z,11.61
2022-12-22T11:27:23.868Z,11.59
2022-12-22T11:28:23.811Z,11.65
2022-12-22T11:29:23.815Z,11.59
2022-12-22T11:30:23.784Z,11.71
2022-12-22T11:31:23.930Z,11.64
2022-12-22T11:32:23.777Z,11.71
2022-12-22T11:33:23.768Z,11.75
2022-12-22T11:34:23.758Z,11.77
2022-12-22T11:35:23.727Z,11.82
2022-12-22T11:36:23.713Z,11.89
2022-12-22T11:37:23.724Z,12.13
2022-12-22T11:38:23.711Z,12.38
2022-12-22T11:39:23.679Z,12.31
2022-12-22T11:40:23.681Z,12.57
2022-12-22T11:41:23.667Z,12.69
2022-12-22T11:42:23.666Z,12.70
2022-12-22T11:43:23.661Z,12.67
2022-12-22T11:44:23.633Z,12.79
2022-12-22T11:45:23.641Z,12.75
2022-12-22T11:46:23.728Z,12.64
2022-12-22T11:47:23.626Z,12.67
2022-12-22T11:48:23.600Z,12.60
2022-12-22T11:49:23.574Z,12.57
2022-12-22T11:51:00.382Z,12.46
2022-12-22T11:51:28.338Z,12.48
2022-12-22T11:52:23.532Z,12.48
2022-12-22T11:53:23.540Z,12.39
2022-12-22T11:54:23.518Z,12.37
2022-12-22T11:55:23.510Z,12.49
2022-12-22T11:56:23.517Z,12.48
2022-12-22T11:57:23.488Z,12.48
2022-12-22T11:58:23.489Z,12.64
2022-12-22T11:59:23.492Z,12.64
2022-12-22T12:00:32.770Z,12.77
2022-12-22T12:01:26.400Z,12.95
2022-12-22T12:02:23.660Z,13.07
2022-12-22T12:03:23.535Z,13.54
2022-12-22T12:04:23.495Z,13.62
2022-12-22T12:05:23.398Z,13.80
2022-12-22T12:06:23.395Z,13.67
2022-12-22T12:07:26.019Z,13.77
2022-12-22T12:08:23.374Z,13.79
2022-12-22T12:09:23.356Z,13.73
2022-12-22T12:10:23.397Z,13.65
2022-12-22T12:11:23.319Z,13.83
2022-12-22T12:12:23.306Z,13.94
2022-12-22T12:13:28.695Z,14.04
2022-12-22T12:14:24.283Z,14.19
2022-12-22T12:15:23.347Z,14.35
2022-12-22T12:16:23.364Z,14.52
2022-12-22T12:17:23.287Z,14.71
2022-12-22T12:18:23.243Z,14.81
2022-12-22T12:19:27.120Z,14.78
2022-12-22T12:20:24.235Z,15.01
2022-12-22T12:21:23.237Z,15.01
2022-12-22T12:22:23.199Z,15.08
2022-12-22T12:23:23.203Z,15.13
2022-12-22T12:24:23.236Z,15.20
2022-12-22T12:25:25.958Z,15.27
2022-12-22T12:26:23.196Z,15.35
2022-12-22T12:27:23.143Z,15.46
2022-12-22T12:28:23.128Z,15.64
2022-12-22T12:29:23.135Z,15.66
2022-12-22T12:30:39.790Z,15.78
2022-12-22T12:31:26.469Z,15.84
2022-12-22T12:32:23.084Z,15.96
2022-12-22T12:33:23.067Z,16.16
2022-12-22T12:34:23.076Z,16.15
2022-12-22T12:35:24.048Z,16.20
2022-12-22T12:36:23.072Z,16.06
2022-12-22T12:37:26.455Z,16.03
2022-12-22T12:38:56.798Z,15.99
2022-12-22T12:39:24.003Z,16.04
2022-12-22T12:40:24.005Z,16.04
2022-12-22T12:41:22.990Z,16.03
2022-12-22T12:42:22.970Z,16.04
2022-12-22T12:43:22.962Z,16.11
2022-12-22T12:44:22.970Z,16.18
2022-12-22T12:45:22.943Z,16.27
2022-12-22T12:46:22.962Z,16.26
2022-12-22T12:47:22.965Z,16.44
2022-12-22T12:48:23.048Z,16.56
2022-12-22T12:49:26.416Z,16.67
2022-12-22T12:50:22.894Z,16.88
2022-12-22T12:51:23.865Z,16.93
2022-12-22T12:52:22.914Z,16.99
2022-12-22T12:53:22.862Z,16.96
2022-12-22T12:54:22.843Z,17.04
2022-12-22T12:55:28.022Z,16.95
2022-12-22T12:56:23.831Z,16.86
2022-12-22T12:57:22.829Z,16.93
2022-12-22T12:58:23.786Z,16.95
2022-12-22T12:59:22.788Z,16.95
2022-12-22T13:00:22.787Z,16.90
2022-12-22T13:01:22.779Z,16.85
2022-12-22T13:02:22.980Z,16.90
2022-12-22T13:03:53.005Z,16.78
2022-12-22T13:04:23.882Z,16.73
2022-12-22T13:05:22.717Z,16.62
2022-12-22T13:06:22.706Z,16.44
2022-12-22T13:07:22.693Z,16.27
2022-12-22T13:08:22.710Z,16.06
2022-12-22T13:10:23.667Z,15.46
2022-12-22T13:12:01.262Z,15.38
2022-12-22T13:12:24.826Z,15.31
2022-12-22T13:13:22.653Z,15.13
2022-12-22T13:14:22.733Z,14.95
2022-12-22T13:15:22.616Z,14.72
2022-12-22T13:16:22.681Z,14.69
2022-12-22T13:17:22.768Z,14.62
2022-12-22T13:18:22.568Z,14.28
2022-12-22T13:19:22.602Z,14.24
2022-12-22T13:20:22.552Z,14.10
2022-12-22T13:22:23.532Z,13.80
2022-12-22T13:23:22.501Z,13.76
2022-12-22T13:24:25.627Z,13.63
2022-12-22T13:25:22.487Z,13.62
2022-12-22T13:26:22.480Z,13.47
2022-12-22T13:27:22.469Z,13.30
2022-12-22T13:28:22.454Z,13.33
2022-12-22T13:29:22.460Z,13.29
2022-12-22T13:30:22.445Z,13.21
2022-12-22T13:31:22.553Z,13.11
2022-12-22T13:32:22.426Z,13.03
2022-12-22T13:33:22.390Z,12.99
2022-12-22T13:34:22.383Z,12.92
2022-12-22T13:35:31.683Z,12.84
2022-12-22T13:36:23.379Z,12.88
2022-12-22T13:37:22.361Z,12.85
2022-12-22T13:38:22.360Z,12.85
2022-12-22T13:39:22.338Z,12.71
2022-12-22T13:40:22.355Z,12.77
2022-12-22T13:41:27.137Z,12.82
2022-12-22T13:42:23.348Z,12.77
2022-12-22T13:43:23.277Z,12.79
2022-12-22T13:44:22.301Z,12.79
2022-12-22T13:45:22.268Z,12.71
2022-12-22T13:46:22.344Z,12.60
2022-12-22T13:47:22.234Z,12.62
2022-12-22T13:48:22.245Z,12.63
2022-12-22T13:49:51.647Z,12.66
2022-12-22T13:50:23.200Z,12.60
2022-12-22T13:51:22.227Z,12.64
2022-12-22T13:52:22.200Z,12.70
2022-12-22T13:53:49.976Z,12.75
2022-12-22T13:54:23.163Z,12.79
2022-12-22T13:55:22.153Z,12.84
2022-12-22T13:56:22.168Z,12.69
2022-12-22T13:57:22.181Z,12.82
2022-12-22T13:58:22.127Z,12.79
2022-12-22T13:59:22.115Z,12.85
2022-12-22T14:00:22.107Z,12.88
2022-12-22T14:01:22.381Z,12.87
2022-12-22T14:02:22.323Z,12.85
2022-12-22T14:03:50.151Z,12.84
2022-12-22T14:04:23.199Z,12.84
2022-12-22T14:05:22.047Z,12.87
2022-12-22T14:06:22.060Z,12.85
2022-12-22T14:07:22.041Z,12.88
2022-12-22T14:08:22.000Z,12.87
2022-12-22T14:09:21.992Z,12.89
2022-12-22T14:10:21.990Z,12.93
2022-12-22T14:11:21.993Z,12.71
2022-12-22T14:12:21.954Z,12.85
2022-12-22T14:13:21.943Z,12.84
2022-12-22T14:14:21.953Z,12.79
2022-12-22T14:15:21.944Z,12.71
2022-12-22T14:16:22.029Z,12.71
2022-12-22T14:17:21.927Z,12.74
2022-12-22T14:18:21.901Z,12.63
2022-12-22T14:19:21.871Z,12.69
2022-12-22T14:20:21.894Z,12.64
2022-12-22T14:21:21.867Z,12.62
2022-12-22T14:22:21.857Z,12.49
2022-12-22T14:23:21.851Z,12.49
2022-12-22T14:24:21.830Z,12.37
2022-12-22T14:25:21.828Z,12.31
2022-12-22T14:26:21.818Z,12.19
2022-12-22T14:27:21.917Z,12.27
2022-12-22T14:28:21.790Z,12.20
2022-12-22T14:29:21.758Z,12.21
2022-12-22T14:30:21.753Z,12.08
2022-12-22T14:31:21.810Z,12.12
2022-12-22T14:32:21.760Z,12.09
2022-12-22T14:33:21.722Z,12.01
2022-12-22T14:34:21.719Z,12.05
2022-12-22T14:35:21.727Z,12.05
2022-12-22T14:36:21.703Z,11.96
2022-12-22T14:37:25.654Z,12.01
2022-12-22T14:38:22.691Z,11.82
2022-12-22T14:39:21.675Z,11.87
2022-12-22T14:40:21.649Z,11.85
2022-12-22T14:41:21.643Z,11.85
2022-12-22T14:42:21.637Z,11.89
2022-12-22T14:43:21.626Z,11.86
2022-12-22T14:44:22.087Z,11.78
2022-12-22T14:45:21.588Z,11.80
2022-12-22T14:46:21.630Z,11.75
2022-12-22T14:47:21.562Z,11.71
2022-12-22T14:48:21.584Z,11.71
2022-12-22T14:49:21.563Z,11.72
2022-12-22T14:50:21.526Z,11.78
2022-12-22T14:51:21.515Z,11.68
2022-12-22T14:52:21.514Z,11.70
2022-12-22T14:53:21.507Z,11.67
2022-12-22T14:54:21.496Z,11.64
2022-12-22T14:55:21.519Z,11.57
2022-12-22T14:56:21.464Z,11.44
2022-12-22T14:57:21.451Z,11.53
2022-12-22T14:58:21.438Z,11.53
2022-12-22T14:59:21.468Z,11.47
2022-12-22T15:00:21.410Z,11.47
2022-12-22T15:01:21.514Z,11.49
2022-12-22T15:02:21.594Z,11.49
2022-12-22T15:03:21.542Z,11.43
2022-12-22T15:04:21.381Z,11.35
2022-12-22T15:05:21.367Z,11.38
2022-12-22T15:06:21.347Z,11.39
2022-12-22T15:08:03.058Z,11.35
2022-12-22T15:08:22.320Z,11.41
2022-12-22T15:09:47.283Z,11.46
2022-12-22T15:10:22.299Z,11.32
2022-12-22T15:11:21.292Z,11.41
2022-12-22T15:12:21.412Z,11.44
2022-12-22T15:13:21.289Z,11.43
2022-12-22T15:14:21.272Z,11.32
2022-12-22T15:15:21.271Z,11.17
2022-12-22T15:16:21.321Z,11.21
2022-12-22T15:17:21.243Z,11.32
2022-12-22T15:18:21.212Z,11.32
2022-12-22T15:19:21.253Z,11.25
2022-12-22T15:20:21.204Z,11.31
2022-12-22T15:21:21.182Z,11.35
2022-12-22T15:22:21.164Z,11.21
2022-12-22T15:23:21.185Z,11.21
2022-12-22T15:24:21.183Z,11.28
2022-12-22T15:25:21.184Z,11.25
2022-12-22T15:26:21.140Z,11.31
2022-12-22T15:27:21.112Z,11.21
2022-12-22T15:28:21.253Z,11.21
2022-12-22T15:29:21.105Z,11.20
2022-12-22T15:30:21.089Z,11.25
2022-12-22T15:31:21.177Z,11.21
2022-12-22T15:32:21.080Z,11.24
2022-12-22T15:33:21.085Z,11.24
2022-12-22T15:34:21.030Z,11.25
2022-12-22T15:35:21.030Z,11.21
2022-12-22T15:36:21.041Z,11.20
2022-12-22T15:37:21.001Z,11.14
2022-12-22T15:38:21.028Z,11.28
2022-12-22T15:39:20.992Z,11.10
2022-12-22T15:40:20.963Z,11.19
2022-12-22T15:41:20.972Z,11.17
2022-12-22T15:42:21.003Z,11.24
2022-12-22T15:44:21.956Z,11.20
2022-12-22T15:45:20.924Z,11.19
2022-12-22T15:46:36.503Z,11.17
2022-12-22T15:47:20.902Z,11.21
2022-12-22T15:48:20.888Z,11.11
2022-12-22T15:49:20.886Z,11.11
2022-12-22T15:50:20.850Z,11.11
2022-12-22T15:51:21.872Z,11.10
2022-12-22T15:52:20.846Z,11.07
2022-12-22T15:53:20.837Z,11.11
2022-12-22T15:54:20.819Z,10.99
2022-12-22T15:55:20.801Z,11.03
2022-12-22T15:56:20.815Z,10.98
2022-12-22T15:57:20.777Z,10.99
2022-12-22T15:58:20.760Z,10.98
2022-12-22T15:59:20.751Z,10.99
2022-12-22T16:00:20.759Z,11.02
2022-12-22T16:01:20.860Z,10.91
2022-12-22T16:02:21.947Z,10.86
2022-12-22T16:03:20.823Z,10.98
2022-12-22T16:04:20.712Z,10.98
2022-12-22T16:05:20.700Z,10.96
2022-12-22T16:06:20.706Z,10.92
2022-12-22T16:07:20.688Z,10.94
2022-12-22T16:08:20.654Z,10.91
2022-12-22T16:09:20.654Z,10.94
2022-12-22T16:10:20.626Z,10.83
2022-12-22T16:11:20.644Z,10.84
2022-12-22T16:12:20.625Z,10.86
2022-12-22T16:13:20.611Z,10.81
2022-12-22T16:14:20.584Z,10.84
2022-12-22T16:15:20.588Z,10.88
2022-12-22T16:16:20.666Z,10.84
2022-12-22T16:17:20.559Z,10.84
2022-12-22T16:18:20.580Z,10.91
2022-12-22T16:19:20.583Z,10.89
2022-12-22T16:20:20.516Z,10.95
2022-12-22T16:21:21.526Z,10.88
2022-12-22T16:22:20.493Z,10.84
2022-12-22T16:23:20.484Z,10.92
2022-12-22T16:24:20.481Z,10.86
2022-12-22T16:25:20.468Z,10.80
2022-12-22T16:26:20.463Z,10.83
2022-12-22T16:27:20.456Z,10.80
2022-12-22T16:28:20.427Z,10.88
2022-12-22T16:29:21.433Z,10.80
2022-12-22T16:30:20.426Z,10.80
2022-12-22T16:31:20.516Z,10.80
2022-12-22T16:32:20.421Z,10.81
2022-12-22T16:33:20.387Z,10.77
2022-12-22T16:34:20.414Z,10.84
2022-12-22T16:35:20.409Z,10.88
2022-12-22T16:36:20.347Z,10.76
2022-12-22T16:37:20.338Z,10.84
2022-12-22T16:38:20.367Z,10.71
2022-12-22T16:39:21.327Z,10.88
2022-12-22T16:40:20.305Z,10.76
2022-12-22T16:41:20.290Z,10.84
2022-12-22T16:44:19.920Z,10.81
2022-12-22T16:44:58.918Z,10.71
2022-12-22T16:45:58.915Z,10.77
2022-12-22T16:46:59.010Z,10.68
2022-12-22T16:47:58.896Z,10.76
2022-12-22T16:48:58.866Z,10.76
2022-12-22T16:49:58.860Z,10.70
2022-12-22T16:50:58.817Z,10.73
2022-12-22T16:51:58.817Z,10.74
2022-12-22T16:52:58.818Z,10.71
2022-12-22T16:53:58.789Z,10.77
2022-12-22T16:54:58.839Z,10.73
2022-12-22T16:55:58.771Z,10.83
2022-12-22T16:56:58.754Z,10.70
2022-12-22T16:57:58.740Z,10.80
2022-12-22T16:58:58.783Z,10.76
2022-12-22T16:59:58.758Z,10.83
2022-12-22T17:00:58.722Z,10.73
2022-12-22T17:01:58.834Z,10.73
2022-12-22T17:02:58.860Z,10.71
2022-12-22T17:03:58.764Z,10.78
2022-12-22T17:04:58.697Z,10.74
2022-12-22T17:05:58.803Z,10.77
2022-12-22T17:06:58.652Z,10.76
2022-12-22T17:07:58.644Z,10.80
2022-12-22T17:08:58.621Z,10.80
2022-12-22T17:09:58.628Z,10.80
2022-12-22T17:11:01.133Z,10.76
2022-12-22T17:11:59.578Z,10.74
2022-12-22T17:12:58.596Z,10.83
2022-12-22T17:13:58.572Z,10.80
2022-12-22T17:14:58.556Z,10.77
2022-12-22T17:16:08.365Z,10.78
2022-12-22T17:16:58.550Z,10.59
2022-12-22T17:17:58.518Z,10.66
2022-12-22T17:18:58.538Z,10.74
2022-12-22T17:19:58.541Z,10.68
2022-12-22T17:20:58.491Z,10.65
2022-12-22T17:21:58.495Z,10.73
2022-12-22T17:22:58.463Z,10.71
2022-12-22T17:23:58.464Z,10.73
2022-12-22T17:24:58.456Z,10.65
2022-12-22T17:25:58.425Z,10.76
2022-12-22T17:26:58.457Z,10.59
2022-12-22T17:27:58.424Z,10.66
2022-12-22T17:28:58.406Z,10.66
2022-12-22T17:29:58.376Z,10.71
2022-12-22T17:30:58.440Z,10.62
2022-12-22T17:31:58.401Z,10.66
2022-12-22T17:32:58.364Z,10.53
2022-12-22T17:33:58.339Z,10.55
2022-12-22T17:34:58.351Z,10.71
2022-12-22T17:35:59.341Z,10.76
2022-12-22T17:36:58.344Z,10.66
2022-12-22T17:37:58.282Z,10.59
2022-12-22T17:38:58.275Z,10.71
2022-12-22T17:39:58.321Z,10.62
2022-12-22T17:40:59.270Z,10.70
2022-12-22T17:41:58.251Z,10.71
2022-12-22T17:42:58.243Z,10.59
2022-12-22T17:43:58.231Z,10.65
2022-12-22T17:44:58.324Z,10.60
2022-12-22T17:45:58.218Z,10.66
2022-12-22T17:46:58.382Z,10.60
2022-12-22T17:47:58.204Z,10.77
2022-12-22T17:48:58.180Z,10.76
2022-12-22T17:49:58.152Z,10.78
2022-12-22T17:50:58.200Z,10.73
2022-12-22T17:51:58.163Z,10.74
2022-12-22T17:52:58.128Z,10.73
2022-12-22T17:53:58.131Z,10.76
2022-12-22T17:54:58.101Z,10.73
2022-12-22T17:56:13.451Z,10.68
2022-12-22T17:56:59.093Z,10.74
2022-12-22T17:57:58.066Z,10.84
2022-12-22T17:58:58.084Z,10.84
2022-12-22T17:59:58.040Z,10.84
2022-12-22T18:00:58.055Z,10.91
2022-12-22T18:01:58.183Z,10.86
2022-12-22T18:02:58.165Z,11.02
2022-12-22T18:03:58.072Z,10.92
2022-12-22T18:04:58.007Z,10.88
2022-12-22T18:05:57.992Z,11.01
2022-12-22T18:06:57.968Z,11.01
2022-12-22T18:07:59.027Z,10.91
2022-12-22T18:08:57.992Z,10.98
2022-12-22T18:09:57.928Z,10.86
2022-12-22T18:10:57.930Z,10.88
2022-12-22T18:11:57.916Z,10.91
2022-12-22T18:12:57.925Z,10.96
2022-12-22T18:13:57.903Z,10.92
2022-12-22T18:14:57.911Z,10.94
2022-12-22T18:15:57.887Z,10.88
2022-12-22T18:16:57.891Z,11.01
2022-12-22T18:17:57.864Z,10.91
2022-12-22T18:18:57.854Z,10.96
2022-12-22T18:19:57.819Z,10.96
2022-12-22T18:21:06.385Z,10.91
2022-12-22T18:21:58.864Z,10.88
2022-12-22T18:22:57.800Z,10.84
2022-12-22T18:23:57.817Z,10.88
2022-12-22T18:24:57.762Z,10.96
2022-12-22T18:25:57.773Z,10.96
2022-12-22T18:26:57.754Z,10.81
2022-12-22T18:27:57.740Z,10.92
2022-12-22T18:28:57.775Z,10.95
2022-12-22T18:29:57.704Z,10.84
2022-12-22T18:30:57.729Z,10.83
2022-12-22T18:31:57.797Z,10.80
2022-12-22T18:32:57.702Z,10.88
2022-12-22T18:33:57.680Z,10.83
2022-12-22T18:34:57.665Z,10.83
2022-12-22T18:35:57.637Z,10.84
2022-12-22T18:36:57.646Z,10.94
2022-12-22T18:37:57.613Z,10.98
2022-12-22T18:38:57.647Z,10.88
2022-12-22T18:39:57.621Z,10.83
2022-12-22T18:40:57.641Z,10.92
2022-12-22T18:41:57.594Z,10.74
2022-12-22T18:42:57.578Z,10.84
2022-12-22T18:43:57.575Z,10.83
2022-12-22T18:44:57.555Z,10.86
2022-12-22T18:45:57.538Z,10.81
2022-12-22T18:46:57.560Z,10.88
2022-12-22T18:47:57.518Z,10.88
2022-12-22T18:49:03.421Z,10.88
2022-12-22T18:49:58.551Z,11.02
2022-12-22T18:50:57.488Z,10.94
2022-12-22T18:51:57.490Z,10.94
2022-12-22T18:52:57.490Z,10.91
2022-12-22T18:53:57.478Z,10.96
2022-12-22T18:54:57.445Z,11.01
2022-12-22T18:55:57.449Z,11.02
2022-12-22T18:56:57.413Z,10.92
2022-12-22T18:57:57.402Z,10.99
2022-12-22T18:58:57.420Z,11.07
2022-12-22T18:59:57.387Z,11.01
2022-12-22T19:00:57.436Z,11.07
2022-12-22T19:01:57.495Z,11.01
2022-12-22T19:02:57.470Z,11.10
2022-12-22T19:03:57.395Z,11.03
2022-12-22T19:04:57.336Z,10.95
2022-12-22T19:05:57.303Z,10.94
2022-12-22T19:06:57.307Z,10.86
2022-12-22T19:07:57.283Z,10.84
2022-12-22T19:08:57.297Z,10.83
2022-12-22T19:09:57.271Z,10.77
2022-12-22T19:10:57.282Z,10.74
2022-12-22T19:11:57.271Z,10.80
2022-12-22T19:12:57.253Z,10.74
2022-12-22T19:13:57.234Z,10.74
2022-12-22T19:14:57.230Z,10.59
2022-12-22T19:15:57.220Z,10.77
2022-12-22T19:16:57.254Z,10.80
2022-12-22T19:17:57.166Z,10.65
2022-12-22T19:18:57.183Z,10.73
2022-12-22T19:19:57.225Z,10.68
2022-12-22T19:20:57.173Z,10.53
2022-12-22T19:21:57.116Z,10.65
2022-12-22T19:22:57.131Z,10.51
2022-12-22T19:23:57.144Z,10.62
2022-12-22T19:24:57.107Z,10.63
2022-12-22T19:25:57.117Z,10.62
2022-12-22T19:26:57.077Z,10.47
2022-12-22T19:27:57.078Z,10.58
2022-12-22T19:28:57.064Z,10.51
2022-12-22T19:30:03.162Z,10.43
2022-12-22T19:30:58.034Z,10.44
2022-12-22T19:31:57.232Z,10.52
2022-12-22T19:32:57.125Z,10.43
2022-12-22T19:33:56.985Z,10.46
2022-12-22T19:34:57.014Z,10.36
2022-12-22T19:35:56.978Z,10.44
2022-12-22T19:36:57.831Z,10.34
2022-12-22T19:37:56.941Z,10.37
2022-12-22T19:39:03.237Z,10.25
2022-12-22T19:39:57.974Z,10.40
2022-12-22T19:40:56.914Z,10.30
2022-12-22T19:41:56.897Z,10.25
2022-12-22T19:42:56.914Z,10.33
2022-12-22T19:43:56.988Z,10.30
2022-12-22T19:44:56.879Z,10.32
2022-12-22T19:45:56.902Z,10.22
2022-12-22T19:46:56.868Z,10.26
2022-12-22T19:47:56.848Z,10.24
2022-12-22T19:48:56.839Z,10.24
2022-12-22T19:49:56.823Z,10.17
2022-12-22T19:50:56.803Z,10.12
2022-12-22T19:51:56.813Z,10.19
2022-12-22T19:52:56.790Z,10.18
2022-12-22T19:53:56.789Z,10.22
2022-12-22T19:54:56.770Z,10.18
2022-12-22T19:55:56.755Z,10.22
2022-12-22T19:56:56.734Z,10.21
2022-12-22T19:57:56.730Z,10.21
2022-12-22T19:58:56.723Z,10.14
2022-12-22T19:59:56.797Z,10.09
2022-12-22T20:00:56.760Z,10.28
2022-12-22T20:01:56.963Z,10.25
2022-12-22T20:02:56.747Z,10.25
2022-12-22T20:03:56.661Z,10.18
2022-12-22T20:04:56.682Z,10.28
2022-12-22T20:05:56.627Z,10.18
2022-12-22T20:06:56.659Z,10.28
2022-12-22T20:07:56.612Z,10.21
2022-12-22T20:08:56.636Z,10.17
2022-12-22T20:09:56.610Z,10.25
2022-12-22T20:10:59.002Z,10.21
2022-12-22T20:11:56.563Z,10.14
2022-12-22T20:12:56.567Z,10.21
2022-12-22T20:13:56.535Z,10.19
2022-12-22T20:14:56.551Z,10.15
2022-12-22T20:15:56.550Z,10.15
2022-12-22T20:16:56.612Z,10.18
2022-12-22T20:17:56.506Z,10.26
2022-12-22T20:18:57.485Z,10.17
2022-12-22T20:19:56.487Z,10.32
2022-12-22T20:20:57.704Z,10.30
2022-12-22T20:21:56.623Z,10.21
2022-12-22T20:22:56.458Z,10.15
2022-12-22T20:23:56.430Z,10.21
2022-12-22T20:24:56.435Z,10.17
2022-12-22T20:25:56.403Z,10.26
2022-12-22T20:26:57.501Z,10.19
2022-12-22T20:27:56.415Z,10.22
2022-12-22T20:28:56.414Z,10.32
2022-12-22T20:29:56.387Z,10.26
2022-12-22T20:30:56.350Z,10.33
2022-12-22T20:31:56.563Z,10.40
2022-12-22T20:32:56.349Z,10.42
2022-12-22T20:33:56.330Z,10.39
2022-12-22T20:34:56.321Z,10.36
2022-12-22T20:35:57.303Z,10.34
2022-12-22T20:36:56.300Z,10.39
2022-12-22T20:37:56.286Z,10.30
2022-12-22T20:38:56.278Z,10.39
2022-12-22T20:39:56.299Z,10.42
2022-12-22T20:40:56.237Z,10.30
2022-12-22T20:41:57.236Z,10.28
2022-12-22T20:42:56.251Z,10.36
2022-12-22T20:43:56.215Z,10.51
2022-12-22T20:45:04.056Z,10.34
2022-12-22T20:45:57.320Z,10.39
2022-12-22T20:46:56.177Z,10.32
2022-12-22T20:47:56.191Z,10.40
2022-12-22T20:48:57.171Z,10.42
2022-12-22T20:49:56.150Z,10.42
2022-12-22T20:50:56.148Z,10.40
2022-12-22T20:51:56.117Z,10.34
2022-12-22T20:52:56.130Z,10.51
2022-12-22T20:53:56.123Z,10.44
2022-12-22T20:54:56.100Z,10.42
2022-12-22T20:55:56.080Z,10.47
2022-12-22T20:56:56.070Z,10.47
2022-12-22T20:57:56.063Z,10.46
2022-12-22T20:58:56.050Z,10.53
2022-12-22T20:59:56.935Z,10.46
2022-12-22T21:01:11.927Z,10.55
2022-12-22T21:01:56.251Z,10.42
2022-12-22T21:02:56.196Z,10.46
2022-12-22T21:03:56.090Z,10.58
2022-12-22T21:04:55.991Z,10.43
2022-12-22T21:05:55.996Z,10.47
2022-12-22T21:06:55.960Z,10.55
2022-12-22T21:07:55.954Z,10.58
2022-12-22T21:08:55.932Z,10.53
2022-12-22T21:09:55.931Z,10.51
2022-12-22T21:10:55.915Z,10.51
2022-12-22T21:11:55.903Z,10.51
2022-12-22T21:12:55.874Z,10.52
2022-12-22T21:13:55.888Z,10.40
2022-12-22T21:14:55.862Z,10.40
2022-12-22T21:15:55.861Z,10.59
2022-12-22T21:16:55.926Z,10.47
2022-12-22T21:17:58.460Z,10.47
2022-12-22T21:18:55.816Z,10.51
2022-12-22T21:19:55.826Z,10.44
2022-12-22T21:20:55.813Z,10.51
2022-12-22T21:21:55.788Z,10.51
2022-12-22T21:22:55.779Z,10.36
2022-12-22T21:23:55.756Z,10.46
2022-12-22T21:24:55.746Z,10.39
2022-12-22T21:25:55.773Z,10.42
2022-12-22T21:26:55.721Z,10.42
2022-12-22T21:27:55.729Z,10.42
2022-12-22T21:28:55.706Z,10.36
2022-12-22T21:29:55.701Z,10.34
2022-12-22T21:30:55.759Z,10.43
2022-12-22T21:31:55.698Z,10.37
2022-12-22T21:32:55.649Z,10.47
2022-12-22T21:33:55.655Z,10.33
2022-12-22T21:34:55.629Z,10.34
2022-12-22T21:35:55.686Z,10.26
2022-12-22T21:36:55.623Z,10.39
2022-12-22T21:37:55.610Z,10.37
2022-12-22T21:38:56.598Z,10.39
2022-12-22T21:39:55.580Z,10.30
2022-12-22T21:40:55.589Z,10.32
2022-12-22T21:41:55.553Z,10.44
2022-12-22T21:42:55.567Z,10.33
2022-12-22T21:43:55.546Z,10.32
2022-12-22T21:44:55.529Z,10.39
2022-12-22T21:45:55.586Z,10.42
2022-12-22T21:46:55.593Z,10.24
2022-12-22T21:47:55.510Z,10.32
2022-12-22T21:48:55.474Z,10.34
2022-12-22T21:49:55.464Z,10.25
2022-12-22T21:50:55.475Z,10.19
2022-12-22T21:51:55.666Z,10.42
2022-12-22T21:52:55.459Z,10.37
2022-12-22T21:53:55.435Z,10.28
2022-12-22T21:54:55.418Z,10.37
2022-12-22T21:55:55.403Z,10.37
2022-12-22T21:56:55.440Z,10.36
2022-12-22T21:57:55.387Z,10.42
2022-12-22T21:59:00.253Z,10.39
2022-12-22T21:59:56.362Z,10.30